Time;durP1;ratioP1;P1;durP2;ratioP2;P2;SDS_P1;SDS_P2;PMS_P1;PMS_P2;Temp;Humidity;BMP_temperature;BMP_pressure;BME280_temperature;BME280_humidity;BME280_pressure;Samples;Min_cycle;Max_cycle;Signal;HPM_P1;HPM_P2
2023/10/31 00:02:16;;;;;;;4.23;2.53;;;13.10;99.90;;;;;;4937217;28;20107;-21
2023/10/31 00:04:42;;;;;;;5.05;2.60;;;13.10;99.90;;;;;;4950579;28;20320;-20
2023/10/31 00:07:07;;;;;;;5.40;2.60;;;13.10;99.90;;;;;;4914253;28;20033;-20
2023/10/31 00:09:33;;;;;;;6.05;2.83;;;13.10;99.90;;;;;;4963362;28;20023;-20
2023/10/31 00:11:59;;;;;;;6.00;2.90;;;13.10;99.90;;;;;;4929380;28;20358;-20
2023/10/31 00:14:25;;;;;;;6.45;3.30;;;13.10;99.90;;;;;;4952683;28;20086;-20
2023/10/31 00:16:51;;;;;;;7.13;3.20;;;13.10;99.90;;;;;;4953420;28;20591;-20
2023/10/31 00:19:17;;;;;;;7.13;3.20;;;13.10;99.90;;;;;;4961208;28;20043;-20
2023/10/31 00:21:42;;;;;;;7.97;4.03;;;13.10;99.90;;;;;;4929975;28;20473;-21
2023/10/31 00:24:08;;;;;;;6.47;3.63;;;13.10;99.90;;;;;;4928880;28;20055;-20
2023/10/31 00:26:34;;;;;;;7.07;3.37;;;13.20;99.90;;;;;;4935994;28;20033;-20
2023/10/31 00:29:00;;;;;;;6.93;3.65;;;13.20;99.90;;;;;;4939118;28;20031;-21
2023/10/31 00:31:25;;;;;;;7.27;3.77;;;13.20;99.90;;;;;;4941596;28;20049;-19
2023/10/31 00:33:51;;;;;;;6.93;3.80;;;13.10;99.90;;;;;;4964066;28;20255;-17
2023/10/31 00:36:17;;;;;;;6.77;3.23;;;13.20;99.90;;;;;;4936689;28;20046;-19
2023/10/31 00:38:43;;;;;;;7.75;3.50;;;13.10;99.90;;;;;;4922174;28;20234;-18
2023/10/31 00:41:08;;;;;;;6.37;3.43;;;13.20;99.90;;;;;;4938944;28;20031;-19
2023/10/31 00:43:34;;;;;;;7.15;3.60;;;15.40;99.90;;;;;;4927896;28;20038;-19
2023/10/31 00:46:02;;;;;;;9.02;4.20;;;13.10;99.90;;;;;;4956523;28;20039;-17
2023/10/31 00:48:28;;;;;;;7.97;3.83;;;13.20;99.90;;;;;;4954050;28;20035;-19
2023/10/31 00:50:53;;;;;;;7.13;3.53;;;13.20;99.90;;;;;;4937818;28;20338;-17
2023/10/31 00:53:19;;;;;;;9.60;3.93;;;13.20;99.90;;;;;;4949348;28;20035;-18
2023/10/31 00:55:45;;;;;;;8.85;3.95;;;13.20;99.90;;;;;;4945222;28;20129;-17
2023/10/31 00:58:11;;;;;;;8.53;4.00;;;13.20;99.90;;;;;;4934262;28;20026;-19
2023/10/31 01:00:37;;;;;;;8.48;3.83;;;13.20;99.90;;;;;;4948793;28;20074;-21
2023/10/31 01:03:03;;;;;;;9.88;4.47;;;13.20;99.90;;;;;;4959102;28;20118;-21
2023/10/31 01:05:29;;;;;;;8.85;4.20;;;13.20;99.90;;;;;;4927506;28;20035;-21
2023/10/31 01:07:55;;;;;;;7.73;3.80;;;13.20;99.90;;;;;;4929910;28;20512;-21
2023/10/31 01:10:21;;;;;;;7.63;3.70;;;13.20;99.90;;;;;;4936931;28;20081;-21
2023/10/31 01:12:47;;;;;;;7.45;4.18;;;13.20;99.90;;;;;;4950732;28;20147;-21
2023/10/31 01:15:13;;;;;;;7.27;3.80;;;13.20;99.90;;;;;;4929648;28;20031;-21
2023/10/31 01:17:38;;;;;;;7.57;4.17;;;13.20;99.90;;;;;;4949139;28;20831;-21
2023/10/31 01:20:06;;;;;;;6.85;3.63;;;13.20;99.90;;;;;;4948629;28;20047;-22
2023/10/31 01:22:31;;;;;;;6.53;3.33;;;13.30;99.90;;;;;;4934943;28;20067;-21
2023/10/31 01:24:57;;;;;;;6.60;3.50;;;13.30;99.90;;;;;;4925767;28;21045;-21
2023/10/31 01:27:23;;;;;;;6.80;3.50;;;13.30;99.90;;;;;;4938851;28;20041;-21
2023/10/31 01:29:49;;;;;;;6.82;3.30;;;13.30;99.90;;;;;;4931355;28;20492;-22
2023/10/31 01:32:14;;;;;;;5.73;3.43;;;13.30;99.90;;;;;;4959799;28;20165;-21
2023/10/31 01:34:40;;;;;;;6.05;3.20;;;13.30;99.90;;;;;;4935419;28;20031;-21
2023/10/31 01:37:06;;;;;;;6.38;3.47;;;13.30;99.90;;;;;;4944356;28;20062;-22
2023/10/31 01:39:31;;;;;;;4.67;2.77;;;13.30;99.90;;;;;;4934650;28;20497;-21
2023/10/31 01:41:57;;;;;;;5.00;2.80;;;13.30;99.90;;;;;;4923142;28;20026;-18
2023/10/31 01:44:23;;;;;;;4.18;2.80;;;13.30;99.90;;;;;;4950802;28;20023;-19
2023/10/31 01:46:48;;;;;;;4.67;2.70;;;13.30;99.90;;;;;;4929023;28;20031;-18
2023/10/31 01:49:14;;;;;;;4.78;2.70;;;13.30;99.90;;;;;;4957133;28;20031;-20
2023/10/31 01:51:41;;;;;;;3.75;2.33;;;14.80;99.90;;;;;;4932061;28;20190;-18
2023/10/31 01:54:09;;;;;;;4.77;2.70;;;13.30;99.90;;;;;;4948886;28;20090;-19
2023/10/31 01:56:35;;;;;;;4.97;2.35;;;13.30;99.90;;;;;;4923625;28;20469;-19
2023/10/31 01:59:00;;;;;;;5.38;2.60;;;13.30;99.90;;;;;;4939246;28;20038;-18
2023/10/31 02:01:27;;;;;;;3.60;2.40;;;13.30;99.90;;;;;;4941733;28;20043;-20
2023/10/31 02:03:53;;;;;;;5.40;2.30;;;13.30;99.90;;;;;;4940870;28;20034;-19
2023/10/31 02:06:19;;;;;;;5.07;2.53;;;13.30;99.90;;;;;;4943478;28;20178;-19
2023/10/31 02:08:47;;;;;;;4.72;2.72;;;13.30;99.90;;;;;;4948089;28;20263;-18
2023/10/31 02:11:13;;;;;;;4.72;2.72;;;13.30;99.90;;;;;;4946175;28;20034;-20
2023/10/31 02:13:39;;;;;;;3.70;2.30;;;13.30;99.90;;;;;;4921650;28;20239;-19
2023/10/31 02:16:05;;;;;;;3.75;2.28;;;13.20;99.90;;;;;;4946025;28;20030;-18
2023/10/31 02:18:31;;;;;;;4.20;2.10;;;13.20;99.90;;;;;;4941441;28;20031;-19
2023/10/31 02:20:58;;;;;;;3.47;2.10;;;13.20;99.90;;;;;;4947661;28;20065;-17
2023/10/31 02:23:26;;;;;;;4.82;2.30;;;13.20;99.90;;;;;;4962110;28;20031;-20
2023/10/31 02:25:52;;;;;;;3.78;2.00;;;13.20;99.90;;;;;;4938915;28;20388;-18
2023/10/31 02:28:17;;;;;;;4.30;2.37;;;13.20;99.90;;;;;;4920295;28;20835;-20
2023/10/31 02:30:43;;;;;;;3.97;2.35;;;13.20;99.90;;;;;;4950222;28;20283;-19
2023/10/31 02:33:09;;;;;;;3.70;2.10;;;13.20;99.90;;;;;;4934233;28;20137;-22
2023/10/31 02:35:35;;;;;;;4.05;2.30;;;13.20;99.90;;;;;;4953046;28;20142;-22
2023/10/31 02:38:00;;;;;;;4.13;2.17;;;13.20;99.90;;;;;;4945324;28;20025;-22
2023/10/31 02:40:26;;;;;;;3.55;2.25;;;13.20;99.90;;;;;;4932450;28;20038;-22
2023/10/31 02:42:51;;;;;;;4.70;2.40;;;13.10;99.90;;;;;;4947257;28;20026;-22
2023/10/31 02:45:18;;;;;;;3.78;2.30;;;13.10;99.90;;;;;;4920208;28;20050;-21
2023/10/31 02:47:44;;;;;;;5.03;2.30;;;13.10;99.90;;;;;;4948578;28;20031;-22
2023/10/31 02:50:09;;;;;;;4.10;2.20;;;13.10;99.90;;;;;;4941528;28;20074;-22
2023/10/31 02:52:36;;;;;;;4.23;2.23;;;13.20;99.90;;;;;;4943654;28;20295;-18
2023/10/31 02:55:01;;;;;;;4.72;2.50;;;13.10;99.90;;;;;;4941874;28;20054;-18
2023/10/31 02:57:27;;;;;;;3.70;2.20;;;13.10;99.90;;;;;;4918016;28;20043;-18
2023/10/31 02:59:53;;;;;;;3.90;2.43;;;13.10;99.90;;;;;;4921912;28;20197;-18
2023/10/31 03:02:19;;;;;;;4.95;2.30;;;13.10;99.90;;;;;;4914098;28;20098;-19
2023/10/31 03:04:44;;;;;;;3.70;2.33;;;13.10;99.90;;;;;;4935792;28;20031;-18
2023/10/31 03:07:10;;;;;;;3.85;2.30;;;13.00;99.90;;;;;;4928319;28;20497;-19
2023/10/31 03:09:36;;;;;;;4.53;2.40;;;13.00;99.90;;;;;;4942211;28;20339;-19
2023/10/31 03:12:02;;;;;;;3.60;2.13;;;13.00;99.90;;;;;;4947526;28;20055;-19
2023/10/31 03:14:28;;;;;;;4.93;2.47;;;12.90;99.90;;;;;;4918877;28;20281;-18
2023/10/31 03:16:53;;;;;;;3.08;1.88;;;12.90;99.90;;;;;;4947985;28;20039;-18
2023/10/31 03:19:19;;;;;;;3.70;2.13;;;12.90;99.90;;;;;;4928359;28;20043;-19
2023/10/31 03:21:45;;;;;;;3.33;2.00;;;12.90;99.90;;;;;;4931420;28;20039;-18
2023/10/31 03:24:10;;;;;;;4.82;2.30;;;12.90;99.90;;;;;;4914789;28;20043;-20
2023/10/31 03:26:36;;;;;;;3.37;1.97;;;12.90;99.90;;;;;;4933527;28;20230;-18
2023/10/31 03:29:02;;;;;;;5.30;2.30;;;13.00;99.90;;;;;;4945268;28;20027;-19
2023/10/31 03:31:27;;;;;;;3.22;2.00;;;12.90;99.90;;;;;;4918615;28;20110;-18
2023/10/31 03:33:54;;;;;;;3.60;2.20;;;12.90;99.90;;;;;;4935543;28;20129;-18
2023/10/31 03:36:19;;;;;;;3.35;1.95;;;12.20;99.90;;;;;;4924662;28;20063;-19
2023/10/31 03:38:45;;;;;;;3.67;2.13;;;12.90;99.90;;;;;;4932716;28;20034;-18
2023/10/31 03:41:11;;;;;;;5.13;2.43;;;12.90;99.90;;;;;;4940298;28;20015;-19
2023/10/31 03:43:37;;;;;;;5.45;2.55;;;13.00;99.90;;;;;;4961572;28;20568;-22
2023/10/31 03:46:02;;;;;;;5.03;2.47;;;12.90;99.90;;;;;;4940962;28;20576;-21
2023/10/31 03:48:28;;;;;;;4.72;2.80;;;12.80;99.90;;;;;;4946411;28;20038;-21
2023/10/31 03:50:54;;;;;;;4.97;2.80;;;12.90;99.90;;;;;;4936199;28;20481;-21
2023/10/31 03:53:19;;;;;;;3.67;2.25;;;12.90;99.90;;;;;;4918201;28;20039;-19
2023/10/31 03:55:45;;;;;;;3.90;2.40;;;12.90;99.90;;;;;;4947933;28;20047;-18
2023/10/31 03:58:11;;;;;;;4.07;2.33;;;12.80;99.90;;;;;;4922617;28;20032;-19
2023/10/31 04:00:38;;;;;;;4.85;2.47;;;12.80;99.90;;;;;;4923600;28;20933;-17
2023/10/31 04:03:04;;;;;;;5.20;2.20;;;12.80;99.90;;;;;;4955323;28;20433;-21
2023/10/31 04:05:30;;;;;;;3.55;2.25;;;12.80;99.90;;;;;;4964276;28;20044;-21
2023/10/31 04:07:56;;;;;;;3.92;2.30;;;12.80;99.90;;;;;;4931817;28;20489;-21
2023/10/31 04:10:21;;;;;;;3.23;2.17;;;12.70;99.90;;;;;;4935081;28;20042;-21
2023/10/31 04:12:48;;;;;;;4.13;2.15;;;12.70;99.90;;;;;;4937124;28;20043;-21
2023/10/31 04:15:14;;;;;;;3.50;1.90;;;12.70;99.90;;;;;;4948031;28;20027;-21
2023/10/31 04:17:39;;;;;;;3.08;1.80;;;12.60;99.90;;;;;;4935430;28;20035;-21
2023/10/31 04:20:06;;;;;;;3.13;2.00;;;12.60;99.90;;;;;;4957702;28;20065;-21
2023/10/31 04:22:31;;;;;;;3.23;1.83;;;12.60;99.90;;;;;;4931815;28;20846;-21
2023/10/31 04:24:57;;;;;;;3.42;1.98;;;11.90;99.90;;;;;;4938775;28;20023;-21
2023/10/31 04:27:23;;;;;;;3.10;1.80;;;12.50;99.90;;;;;;4947489;28;23495;-21
2023/10/31 04:29:49;;;;;;;3.20;1.75;;;12.50;99.90;;;;;;4961497;28;20134;-21
2023/10/31 04:32:14;;;;;;;3.10;1.80;;;12.40;99.90;;;;;;4919228;28;21239;-21
2023/10/31 04:34:40;;;;;;;3.22;1.83;;;12.40;99.90;;;;;;4947063;28;20493;-21
2023/10/31 04:37:07;;;;;;;2.75;1.75;;;12.40;99.90;;;;;;4942609;28;20173;-21
2023/10/31 04:39:32;;;;;;;3.20;1.63;;;12.40;99.90;;;;;;4920565;28;20505;-21
2023/10/31 04:41:59;;;;;;;2.33;1.57;;;12.30;99.90;;;;;;4958304;28;20306;-21
2023/10/31 04:44:24;;;;;;;2.75;1.75;;;12.30;99.90;;;;;;4930829;28;20307;-21
2023/10/31 04:46:50;;;;;;;2.88;1.80;;;12.30;99.90;;;;;;4948142;28;20031;-21
2023/10/31 04:49:16;;;;;;;3.20;1.80;;;12.30;99.90;;;;;;4921911;28;20035;-21
2023/10/31 04:51:42;;;;;;;2.90;1.77;;;12.30;99.90;;;;;;4941889;28;21790;-22
2023/10/31 04:54:07;;;;;;;3.73;1.80;;;12.30;99.90;;;;;;4921784;28;20035;-21
2023/10/31 04:56:33;;;;;;;2.75;1.58;;;12.30;99.90;;;;;;4939265;28;20031;-21
2023/10/31 04:58:59;;;;;;;3.17;1.80;;;12.30;99.90;;;;;;4937323;28;20031;-21
2023/10/31 05:01:25;;;;;;;3.20;1.73;;;12.30;99.90;;;;;;4930700;28;20253;-21
2023/10/31 05:03:52;;;;;;;4.03;2.00;;;12.30;99.90;;;;;;4923344;28;20137;-21
2023/10/31 05:06:22;;;;;;;3.42;1.73;;;12.30;99.90;;;;;;4947978;28;20031;-21
2023/10/31 05:08:49;;;;;;;4.22;2.13;;;12.20;99.90;;;;;;4935817;28;20031;-21
2023/10/31 05:11:18;;;;;;;3.00;1.70;;;12.20;99.90;;;;;;4932615;28;20042;-21
2023/10/31 05:13:47;;;;;;;4.07;1.98;;;12.20;99.90;;;;;;4947349;28;20046;-21
2023/10/31 05:16:13;;;;;;;3.78;1.90;;;12.20;99.90;;;;;;4935182;28;20062;-21
2023/10/31 05:18:39;;;;;;;3.15;1.85;;;12.20;99.90;;;;;;4937551;28;20552;-21
2023/10/31 05:21:05;;;;;;;3.90;2.00;;;12.20;99.90;;;;;;4932767;28;20101;-21
2023/10/31 05:23:30;;;;;;;3.40;2.17;;;12.20;99.90;;;;;;4959671;28;20042;-21
2023/10/31 05:25:56;;;;;;;3.47;2.10;;;12.20;99.90;;;;;;4943760;28;20464;-21
2023/10/31 05:28:23;;;;;;;3.80;2.28;;;12.20;99.90;;;;;;4950157;28;20133;-21
2023/10/31 05:30:49;;;;;;;4.43;2.33;;;12.10;99.90;;;;;;4935846;28;20130;-21
2023/10/31 05:33:16;;;;;;;4.10;2.40;;;12.10;99.90;;;;;;4940111;28;20820;-21
2023/10/31 05:35:42;;;;;;;3.90;1.95;;;12.10;99.90;;;;;;4923474;28;20035;-21
2023/10/31 05:38:07;;;;;;;5.55;3.00;;;12.10;99.90;;;;;;4925719;28;20450;-21
2023/10/31 05:40:35;;;;;;;5.25;3.03;;;12.10;99.90;;;;;;4948217;28;20046;-21
2023/10/31 05:43:02;;;;;;;5.70;3.30;;;12.20;99.90;;;;;;4934243;28;20036;-21
2023/10/31 05:45:28;;;;;;;4.82;2.72;;;12.10;99.90;;;;;;4937974;28;20117;-21
2023/10/31 05:47:54;;;;;;;4.75;2.60;;;12.20;99.90;;;;;;4947245;28;20169;-21
2023/10/31 05:50:20;;;;;;;4.77;2.93;;;12.10;99.90;;;;;;4919547;28;20043;-21
2023/10/31 05:52:46;;;;;;;4.72;2.58;;;12.10;99.90;;;;;;4963932;28;20092;-21
2023/10/31 05:55:12;;;;;;;4.68;2.60;;;12.10;99.90;;;;;;4945275;28;20877;-21
2023/10/31 05:57:37;;;;;;;4.37;2.70;;;12.10;99.90;;;;;;4920135;28;20106;-21
2023/10/31 06:00:03;;;;;;;5.03;2.83;;;12.10;99.90;;;;;;4947783;28;20114;-21
2023/10/31 06:02:29;;;;;;;5.43;3.10;;;12.10;99.90;;;;;;4942130;28;20070;-21
2023/10/31 06:04:55;;;;;;;6.13;2.90;;;12.10;99.90;;;;;;4937883;28;20336;-21
2023/10/31 06:07:21;;;;;;;4.63;2.53;;;12.00;99.90;;;;;;4916063;28;20039;-21
2023/10/31 06:09:47;;;;;;;5.38;2.70;;;12.00;99.90;;;;;;4913964;28;20301;-20
2023/10/31 06:12:13;;;;;;;5.00;2.70;;;12.00;99.90;;;;;;4936198;28;20078;-21
2023/10/31 06:14:38;;;;;;;6.15;2.75;;;11.90;99.90;;;;;;4940755;28;20042;-21
2023/10/31 06:17:04;;;;;;;5.47;2.57;;;11.90;99.90;;;;;;4932116;28;20377;-21
2023/10/31 06:19:34;;;;;;;6.28;2.58;;;11.90;99.90;;;;;;4926833;28;20046;-21
2023/10/31 06:22:00;;;;;;;5.03;3.00;;;11.90;99.90;;;;;;4916452;28;20291;-21
2023/10/31 06:24:26;;;;;;;5.28;2.83;;;11.70;99.90;;;;;;4936863;28;20047;-19
2023/10/31 06:26:52;;;;;;;6.95;3.20;;;11.80;99.90;;;;;;4931443;28;20039;-17
2023/10/31 06:29:17;;;;;;;6.07;2.90;;;11.80;99.90;;;;;;4945786;28;20031;-18
2023/10/31 06:31:43;;;;;;;6.25;2.97;;;11.80;99.90;;;;;;4932426;28;20039;-18
2023/10/31 06:34:09;;;;;;;6.50;3.28;;;10.50;99.90;;;;;;4959148;28;20042;-21
2023/10/31 06:36:35;;;;;;;5.63;2.93;;;11.80;99.90;;;;;;4942708;28;20134;-21
2023/10/31 06:39:01;;;;;;;7.47;3.45;;;11.80;99.90;;;;;;4919202;28;20412;-21
2023/10/31 06:41:26;;;;;;;6.57;3.23;;;11.80;99.90;;;;;;4962355;28;20097;-21
2023/10/31 06:43:52;;;;;;;6.75;3.33;;;11.80;99.90;;;;;;4921055;28;20177;-21
2023/10/31 06:46:18;;;;;;;4.90;3.00;;;11.80;99.90;;;;;;4946572;28;20035;-21
2023/10/31 06:48:43;;;;;;;5.97;3.03;;;11.80;99.90;;;;;;4939016;28;20050;-21
2023/10/31 06:51:09;;;;;;;5.53;2.67;;;11.90;99.90;;;;;;4947769;28;20436;-21
2023/10/31 06:53:35;;;;;;;6.90;3.13;;;11.80;99.90;;;;;;4920350;28;20503;-20
2023/10/31 06:56:00;;;;;;;5.90;3.10;;;11.90;99.90;;;;;;4944646;28;20336;-21
2023/10/31 06:58:26;;;;;;;5.55;2.80;;;11.80;99.90;;;;;;4928588;28;20093;-20
2023/10/31 07:00:52;;;;;;;5.37;2.83;;;11.80;99.90;;;;;;4922216;28;20352;-21
2023/10/31 07:03:17;;;;;;;5.07;2.85;;;11.80;99.90;;;;;;4950896;28;20118;-21
2023/10/31 07:05:43;;;;;;;4.83;2.93;;;11.80;99.90;;;;;;4944047;28;20355;-21
2023/10/31 07:08:09;;;;;;;6.73;3.20;;;11.80;99.90;;;;;;4947084;28;20117;-21
2023/10/31 07:10:35;;;;;;;6.30;2.80;;;11.90;99.90;;;;;;4936751;28;20173;-21
2023/10/31 07:13:00;;;;;;;5.73;3.30;;;11.90;99.90;;;;;;4932851;28;20035;-21
2023/10/31 07:15:26;;;;;;;6.33;3.20;;;11.90;99.90;;;;;;4943345;28;20888;-21
2023/10/31 07:17:52;;;;;;;6.50;3.35;;;11.90;99.90;;;;;;4934906;28;20101;-21
2023/10/31 07:20:17;;;;;;;6.93;3.40;;;11.00;99.90;;;;;;4949606;28;20540;-20
2023/10/31 07:22:43;;;;;;;5.77;2.83;;;11.90;99.90;;;;;;4945857;28;20027;-21
2023/10/31 07:25:09;;;;;;;5.80;3.03;;;12.00;99.90;;;;;;4922096;28;20034;-21
2023/10/31 07:27:35;;;;;;;5.93;2.90;;;12.00;99.90;;;;;;4937961;28;20038;-21
2023/10/31 07:30:04;;;;;;;6.93;3.60;;;12.10;99.90;;;;;;4930284;28;20035;-21
2023/10/31 07:32:30;;;;;;;5.43;2.77;;;12.20;99.90;;;;;;4938100;28;20499;-21
2023/10/31 07:34:56;;;;;;;5.30;2.70;;;12.30;99.90;;;;;;4945213;28;20027;-21
2023/10/31 07:37:21;;;;;;;6.97;3.63;;;12.40;99.90;;;;;;4942622;28;20507;-21
2023/10/31 07:39:48;;;;;;;5.70;3.03;;;12.40;99.90;;;;;;4936183;28;20015;-21
2023/10/31 07:42:14;;;;;;;5.82;3.28;;;12.50;99.90;;;;;;4962130;28;20035;-21
2023/10/31 07:44:40;;;;;;;5.53;2.95;;;12.50;99.90;;;;;;4950899;28;20041;-21
2023/10/31 07:47:05;;;;;;;5.37;2.93;;;12.60;99.90;;;;;;4925015;28;20118;-20
2023/10/31 07:49:31;;;;;;;6.05;3.30;;;13.30;99.90;;;;;;4932447;28;20058;-20
2023/10/31 07:51:57;;;;;;;5.60;2.92;;;12.70;99.90;;;;;;4960877;28;20050;-20
2023/10/31 07:54:23;;;;;;;6.67;3.17;;;12.70;99.90;;;;;;4948941;28;20640;-17
2023/10/31 07:56:48;;;;;;;4.60;2.90;;;12.80;99.90;;;;;;4921383;28;20066;-18
2023/10/31 07:59:14;;;;;;;7.78;3.70;;;12.80;99.90;;;;;;4928588;28;20141;-18
2023/10/31 08:01:40;;;;;;;6.57;3.20;;;12.90;99.90;;;;;;4906737;28;20041;-19
2023/10/31 08:04:06;;;;;;;6.25;3.13;;;13.00;99.90;;;;;;4916555;28;20579;-18
2023/10/31 08:06:34;;;;;;;6.53;3.80;;;13.00;99.90;;;;;;4934722;28;20078;-17
2023/10/31 08:09:00;;;;;;;5.80;3.15;;;13.10;99.90;;;;;;4943366;28;20125;-17
2023/10/31 08:11:26;;;;;;;5.03;2.60;;;13.10;99.90;;;;;;4922243;28;20070;-17
2023/10/31 08:13:53;;;;;;;6.30;3.40;;;13.10;99.90;;;;;;4956214;28;20030;-19
2023/10/31 08:16:19;;;;;;;6.03;3.22;;;14.40;99.90;;;;;;4953030;28;20019;-18
2023/10/31 08:18:47;;;;;;;5.77;3.20;;;13.20;99.90;;;;;;4944321;28;20081;-19
2023/10/31 08:21:13;;;;;;;5.35;2.90;;;13.20;99.90;;;;;;4942560;28;20058;-17
2023/10/31 08:23:39;;;;;;;5.50;3.10;;;13.30;99.90;;;;;;4941206;28;20138;-19
2023/10/31 08:26:05;;;;;;;4.70;2.58;;;13.30;99.90;;;;;;4933850;28;20473;-18
2023/10/31 08:28:30;;;;;;;4.50;2.50;;;13.40;99.90;;;;;;4915371;28;20038;-18
2023/10/31 08:30:57;;;;;;;5.55;2.90;;;13.50;99.90;;;;;;4932197;28;20061;-18
2023/10/31 08:33:23;;;;;;;5.07;2.65;;;13.60;99.90;;;;;;4947955;28;20035;-18
2023/10/31 08:35:50;;;;;;;4.63;2.60;;;13.60;99.90;;;;;;4895928;28;20409;-19
2023/10/31 08:38:16;;;;;;;4.30;2.33;;;13.50;99.90;;;;;;4949835;28;20558;-18
2023/10/31 08:40:42;;;;;;;4.05;2.47;;;13.70;99.90;;;;;;4921247;28;20110;-18
2023/10/31 08:43:07;;;;;;;3.70;2.40;;;13.70;99.90;;;;;;4922291;28;20367;-18
2023/10/31 08:45:33;;;;;;;3.83;2.35;;;13.70;99.90;;;;;;4952864;28;20732;-21
2023/10/31 08:48:00;;;;;;;3.65;2.33;;;13.80;99.90;;;;;;4930940;28;20572;-21
2023/10/31 08:50:26;;;;;;;3.03;1.97;;;13.80;99.90;;;;;;4925029;28;20061;-21
2023/10/31 08:52:52;;;;;;;4.10;2.17;;;13.80;99.90;;;;;;4938855;28;20814;-21
2023/10/31 08:55:18;;;;;;;3.20;1.88;;;13.90;99.90;;;;;;4965168;28;20087;-21
2023/10/31 08:57:44;;;;;;;4.00;2.33;;;14.00;99.90;;;;;;4923788;28;20034;-21
2023/10/31 09:00:10;;;;;;;3.40;2.20;;;14.00;99.90;;;;;;4945195;28;20027;-21
2023/10/31 09:02:36;;;;;;;3.47;2.08;;;14.00;99.90;;;;;;4932058;28;20444;-21
2023/10/31 09:05:02;;;;;;;4.80;2.13;;;14.00;99.90;;;;;;4939402;28;20169;-18
2023/10/31 09:07:27;;;;;;;2.97;1.92;;;14.20;99.90;;;;;;4941183;28;20042;-18
2023/10/31 09:09:53;;;;;;;3.30;1.97;;;14.20;99.90;;;;;;4937332;28;20653;-18
2023/10/31 09:12:19;;;;;;;2.67;1.67;;;14.30;99.90;;;;;;4945361;28;20063;-18
2023/10/31 09:14:45;;;;;;;3.22;1.70;;;14.30;99.90;;;;;;4895762;28;20031;-19
2023/10/31 09:17:10;;;;;;;1.87;1.40;;;14.30;99.90;;;;;;4931908;28;20046;-18
2023/10/31 09:19:36;;;;;;;2.50;1.52;;;14.30;99.90;;;;;;4946127;28;20043;-19
2023/10/31 09:22:02;;;;;;;2.43;1.80;;;14.30;99.90;;;;;;4924765;28;20145;-18
2023/10/31 09:24:28;;;;;;;2.75;1.73;;;14.30;99.90;;;;;;4943467;28;20566;-18
2023/10/31 09:26:53;;;;;;;2.80;1.90;;;14.30;99.90;;;;;;4962342;28;20038;-18
2023/10/31 09:29:19;;;;;;;2.43;1.80;;;14.30;99.90;;;;;;4928193;28;20050;-18
2023/10/31 09:31:45;;;;;;;3.03;1.90;;;14.30;99.90;;;;;;4948596;28;20033;-19
2023/10/31 09:34:11;;;;;;;3.37;2.03;;;14.30;99.90;;;;;;4937733;28;20035;-18
2023/10/31 09:36:39;;;;;;;2.67;1.77;;;14.30;99.90;;;;;;4948974;28;20097;-19
2023/10/31 09:39:05;;;;;;;4.30;2.05;;;14.40;99.90;;;;;;4922049;28;20034;-18
2023/10/31 09:41:32;;;;;;;4.63;2.40;;;14.40;99.90;;;;;;4945895;28;20038;-18
2023/10/31 09:43:58;;;;;;;3.40;1.92;;;14.50;99.90;;;;;;4917360;28;20035;-18
2023/10/31 09:46:24;;;;;;;3.50;2.28;;;14.60;99.90;;;;;;4943739;28;20030;-19
2023/10/31 09:48:51;;;;;;;2.40;1.70;;;14.70;99.90;;;;;;4932298;28;20027;-19
2023/10/31 09:51:17;;;;;;;2.40;1.73;;;14.80;99.90;;;;;;4949317;28;20738;-19
2023/10/31 09:53:45;;;;;;;2.30;1.77;;;14.70;99.90;;;;;;4943101;28;20039;-19
2023/10/31 09:56:11;;;;;;;2.03;1.58;;;14.90;99.90;;;;;;4932358;28;20054;-18
2023/10/31 09:58:47;;;;;;;3.95;2.00;;;15.00;99.90;;;;;;5027427;28;20547;-20
2023/10/31 10:01:14;;;;;;;2.67;1.70;;;15.20;99.90;;;;;;5030708;28;20567;-17
2023/10/31 10:03:40;;;;;;;2.55;1.67;;;15.20;99.90;;;;;;5042188;28;20048;-19
2023/10/31 10:06:07;;;;;;;1.83;1.50;;;15.30;99.90;;;;;;5060339;28;20053;-18
2023/10/31 10:08:38;;;;;;;2.10;1.48;;;15.40;99.90;;;;;;5021963;28;20045;-19
2023/10/31 10:11:05;;;;;;;3.35;1.65;;;15.50;99.90;;;;;;5016949;28;20345;-18
2023/10/31 10:13:30;;;;;;;2.50;1.65;;;15.50;99.90;;;;;;5041362;28;20029;-18
2023/10/31 10:15:56;;;;;;;2.40;1.60;;;15.60;99.90;;;;;;5015297;28;20418;-20
2023/10/31 10:18:29;;;;;;;2.22;1.58;;;15.70;99.90;;;;;;5032188;28;20450;-20
2023/10/31 10:21:03;;;;;;;3.47;1.73;;;15.70;99.90;;;;;;5027218;28;20307;-22
2023/10/31 10:23:29;;;;;;;2.83;1.80;;;15.70;99.90;;;;;;5029952;28;20031;-20
2023/10/31 10:25:57;;;;;;;2.70;1.98;;;15.70;99.90;;;;;;5023304;28;20119;-21
2023/10/31 10:28:24;;;;;;;2.70;1.92;;;15.80;99.90;;;;;;5046632;28;20040;-19
2023/10/31 10:30:51;;;;;;;4.05;2.00;;;15.70;99.90;;;;;;5003511;28;20332;-20
2023/10/31 10:33:18;;;;;;;3.15;1.85;;;15.80;99.90;;;;;;5043262;28;20354;-22
2023/10/31 10:35:44;;;;;;;3.90;2.00;;;15.80;99.90;;;;;;5035799;28;20515;-22
2023/10/31 10:38:15;;;;;;;2.97;1.67;;;15.80;99.90;;;;;;5035028;28;20177;-21
2023/10/31 10:40:43;;;;;;;4.30;1.90;;;15.80;99.90;;;;;;5017134;28;20021;-19
2023/10/31 10:43:38;;;;;;;2.70;1.90;;;15.80;99.90;;;;;;5044351;28;20024;-20
2023/10/31 10:46:05;;;;;;;2.15;1.70;;;15.70;99.90;;;;;;5017232;28;21604;-20
2023/10/31 10:48:37;;;;;;;2.13;1.70;;;15.70;99.90;;;;;;5028710;28;20021;-22
2023/10/31 10:51:16;;;;;;;2.58;1.70;;;15.60;99.90;;;;;;5041848;28;20126;-21
2023/10/31 10:53:50;;;;;;;3.60;1.77;;;15.60;99.90;;;;;;5016820;28;20048;-20
2023/10/31 10:56:26;;;;;;;3.95;1.80;;;15.50;99.90;;;;;;5021590;28;20449;-19
2023/10/31 10:59:00;;;;;;;3.58;1.77;;;15.50;99.90;;;;;;5040666;28;20065;-22
2023/10/31 11:01:28;;;;;;;4.03;1.80;;;15.40;99.90;;;;;;5016538;28;20035;-23
2023/10/31 11:03:55;;;;;;;3.90;1.73;;;15.40;99.90;;;;;;5033888;28;20095;-20
2023/10/31 11:06:21;;;;;;;2.70;1.67;;;15.30;99.90;;;;;;5040757;28;20024;-20
2023/10/31 11:08:47;;;;;;;2.50;1.75;;;15.30;99.90;;;;;;5015960;28;20033;-19
2023/10/31 11:11:16;;;;;;;3.65;1.65;;;15.30;99.90;;;;;;5017598;28;20053;-19
2023/10/31 11:13:43;;;;;;;3.00;1.50;;;15.30;99.90;;;;;;5006310;28;20036;-23
2023/10/31 11:16:32;;;;;;;3.38;1.80;;;15.30;99.90;;;;;;5014219;28;20029;-19
2023/10/31 11:18:58;;;;;;;3.83;1.63;;;15.30;99.90;;;;;;5012994;28;20342;-20
2023/10/31 11:21:27;;;;;;;3.75;1.80;;;15.30;99.90;;;;;;5020005;28;20360;-19
2023/10/31 11:24:00;;;;;;;3.47;1.80;;;15.30;99.90;;;;;;5016938;28;20720;-23
2023/10/31 11:26:49;;;;;;;2.97;1.70;;;15.30;99.90;;;;;;5013662;28;20108;-19
2023/10/31 11:29:17;;;;;;;9.90;2.53;;;15.30;99.90;;;;;;5023735;28;20700;-20
2023/10/31 11:31:43;;;;;;;3.20;1.70;;;15.40;99.90;;;;;;5013318;28;20462;-20
2023/10/31 11:34:12;;;;;;;3.90;1.43;;;15.10;99.90;;;;;;4997891;28;20299;-19
2023/10/31 11:36:38;;;;;;;4.43;1.42;;;15.40;99.90;;;;;;5012100;28;20029;-19
2023/10/31 11:39:30;;;;;;;3.38;1.77;;;15.40;99.90;;;;;;5011174;28;20480;-21
2023/10/31 11:41:56;;;;;;;3.45;1.58;;;15.50;99.90;;;;;;5016333;28;20049;-20
2023/10/31 11:44:25;;;;;;;3.83;1.60;;;15.50;99.90;;;;;;5015000;28;20033;-20
2023/10/31 11:46:52;;;;;;;3.08;1.77;;;15.50;99.90;;;;;;5003867;28;20037;-20
2023/10/31 11:49:37;;;;;;;4.35;2.00;;;15.60;99.90;;;;;;5016078;28;20619;-21
2023/10/31 11:52:03;;;;;;;2.58;1.40;;;15.60;99.90;;;;;;5006235;28;20038;-20
2023/10/31 11:54:28;;;;;;;2.47;1.40;;;15.50;99.90;;;;;;5007520;28;20665;-19
2023/10/31 11:56:54;;;;;;;2.08;1.45;;;15.60;99.90;;;;;;5008523;28;20500;-21
2023/10/31 11:59:20;;;;;;;2.57;1.57;;;15.50;99.90;;;;;;5003377;28;20483;-20
2023/10/31 12:01:49;;;;;;;3.22;1.80;;;15.50;99.90;;;;;;5002987;28;21247;-20
2023/10/31 12:04:23;;;;;;;3.67;1.85;;;14.80;99.90;;;;;;5000323;28;20033;-19
2023/10/31 12:06:58;;;;;;;3.53;1.90;;;15.50;99.90;;;;;;5014741;28;20593;-19
2023/10/31 12:09:24;;;;;;;5.57;2.70;;;15.50;99.90;;;;;;5019460;28;20013;-20
2023/10/31 12:11:50;;;;;;;4.67;2.63;;;15.40;99.90;;;;;;4999859;28;20432;-20
2023/10/31 12:14:20;;;;;;;9.13;3.40;;;15.40;99.90;;;;;;5012523;28;20017;-19
2023/10/31 12:16:46;;;;;;;7.13;3.20;;;15.30;99.90;;;;;;5016956;28;20029;-20
2023/10/31 12:19:12;;;;;;;7.45;3.30;;;15.20;99.90;;;;;;5003598;28;20518;-20
2023/10/31 12:21:43;;;;;;;7.18;3.22;;;15.20;99.90;;;;;;5022014;28;20079;-21
2023/10/31 12:24:11;;;;;;;4.83;2.60;;;15.10;99.90;;;;;;5007164;28;20269;-21
2023/10/31 12:26:37;;;;;;;5.65;2.83;;;15.10;99.90;;;;;;5002522;28;20028;-21
2023/10/31 12:29:13;;;;;;;4.97;2.63;;;15.00;99.90;;;;;;4994518;28;20672;-21
2023/10/31 12:31:46;;;;;;;5.50;2.50;;;15.00;99.90;;;;;;5010662;28;20037;-23
2023/10/31 12:34:14;;;;;;;8.65;3.55;;;15.00;99.90;;;;;;5001233;28;20030;-21
2023/10/31 12:36:40;;;;;;;6.47;3.10;;;14.90;99.90;;;;;;5010608;28;20037;-21
2023/10/31 12:39:09;;;;;;;5.57;2.75;;;14.90;99.90;;;;;;5029317;28;20818;-23
2023/10/31 12:41:37;;;;;;;5.20;3.00;;;14.80;99.90;;;;;;5010948;28;20043;-21
2023/10/31 12:44:04;;;;;;;4.90;2.55;;;14.80;99.90;;;;;;5023206;28;20044;-22
2023/10/31 12:46:31;;;;;;;5.40;2.50;;;14.70;99.90;;;;;;5016739;28;20036;-20